Time;durP1;ratioP1;P1;durP2;ratioP2;P2;SDS_P1;SDS_P2;PMS_P1;PMS_P2;Temp;Humidity;BMP_temperature;BMP_pressure;BME280_temperature;BME280_humidity;BME280_pressure;Samples;Min_cycle;Max_cycle;Signal;HPM_P1;HPM_P2
2022/08/25 00:01:13;;;;;;;4.97;3.25;;;;;;;;;;2328295;57;21125;-77
2022/08/25 00:03:40;;;;;;;3.60;3.00;;;;;;;;;;2360722;54;21050;-76
2022/08/25 00:06:08;;;;;;;7.40;3.80;;;;;;;;;;2328178;57;21094;-77
2022/08/25 00:08:36;;;;;;;4.55;3.40;;;;;;;;;;2332899;54;21058;-76
2022/08/25 00:11:04;;;;;;;4.97;3.55;;;;;;;;;;2328417;57;21125;-79
2022/08/25 00:13:32;;;;;;;5.05;3.87;;;;;;;;;;2329377;57;21113;-77
2022/08/25 00:15:59;;;;;;;5.15;3.87;;;;;;;;;;2328240;57;21097;-77
2022/08/25 00:18:26;;;;;;;4.03;3.42;;;;;;;;;;2328949;57;21050;-78
2022/08/25 00:20:53;;;;;;;6.25;4.10;;;;;;;;;;2328795;57;21624;-77
2022/08/25 00:23:20;;;;;;;4.28;3.72;;;;;;;;;;2328879;57;21054;-78
2022/08/25 00:25:49;;;;;;;4.97;3.83;;;;;;;;;;2338633;54;21548;-77
2022/08/25 00:28:16;;;;;;;7.47;4.18;;;;;;;;;;2328606;57;21097;-78
2022/08/25 00:30:43;;;;;;;6.80;4.75;;;;;;;;;;2329441;57;21129;-76
2022/08/25 00:33:10;;;;;;;5.35;3.37;;;;;;;;;;2332136;53;21038;-77
2022/08/25 00:35:39;;;;;;;4.53;3.92;;;;;;;;;;2351055;54;21106;-78
2022/08/25 00:38:07;;;;;;;9.95;4.68;;;;;;;;;;2329373;57;21049;-77
2022/08/25 00:40:34;;;;;;;5.65;4.05;;;;;;;;;;2329538;57;21085;-78
2022/08/25 00:43:01;;;;;;;6.62;3.95;;;;;;;;;;2328499;57;21042;-77
2022/08/25 00:45:28;;;;;;;5.37;4.03;;;;;;;;;;2328558;57;21122;-76
2022/08/25 00:47:55;;;;;;;5.25;3.72;;;;;;;;;;2327511;57;21034;-77
2022/08/25 00:50:23;;;;;;;5.87;4.25;;;;;;;;;;2327910;57;21058;-78
2022/08/25 00:52:52;;;;;;;4.72;3.87;;;;;;;;;;2328564;57;21050;-78
2022/08/25 00:55:21;;;;;;;5.37;4.03;;;;;;;;;;2436881;53;21587;-81
2022/08/25 00:57:51;;;;;;;6.03;3.62;;;;;;;;;;2302913;58;21560;-81
2022/08/25 01:00:21;;;;;;;4.78;3.55;;;;;;;;;;2303017;58;21054;-81
2022/08/25 01:02:48;;;;;;;6.57;4.07;;;;;;;;;;2301251;58;21223;-82
2022/08/25 01:05:17;;;;;;;5.32;3.83;;;;;;;;;;2300806;58;21157;-81
2022/08/25 01:07:44;;;;;;;7.60;4.30;;;;;;;;;;2301030;58;21584;-82
2022/08/25 01:10:12;;;;;;;6.30;3.55;;;;;;;;;;2301191;58;21050;-81
2022/08/25 01:12:39;;;;;;;4.60;3.37;;;;;;;;;;2301289;58;21132;-81
2022/08/25 01:15:08;;;;;;;4.90;3.65;;;;;;;;;;2301100;58;21145;-81
2022/08/25 01:17:39;;;;;;;6.28;3.70;;;;;;;;;;2300842;58;21663;-81
2022/08/25 01:20:07;;;;;;;10.35;3.87;;;;;;;;;;2301076;58;21134;-81
2022/08/25 01:22:34;;;;;;;5.28;3.60;;;;;;;;;;2300372;58;21129;-81
2022/08/25 01:25:02;;;;;;;4.30;3.72;;;;;;;;;;2300396;58;21073;-81
2022/08/25 01:27:30;;;;;;;9.57;4.32;;;;;;;;;;2300191;58;21145;-81
2022/08/25 01:29:57;;;;;;;5.90;4.05;;;;;;;;;;2301005;58;21070;-81
2022/08/25 01:32:24;;;;;;;7.37;4.32;;;;;;;;;;2300317;58;21051;-81
2022/08/25 01:34:51;;;;;;;8.20;4.70;;;;;;;;;;2300539;58;21078;-81
2022/08/25 01:37:19;;;;;;;4.70;4.20;;;;;;;;;;2300544;58;21066;-81
2022/08/25 01:39:46;;;;;;;7.57;4.68;;;;;;;;;;2300512;58;21209;-81
2022/08/25 01:42:18;;;;;;;6.75;4.10;;;;;;;;;;2300957;58;21074;-81
2022/08/25 01:44:46;;;;;;;6.28;4.15;;;;;;;;;;2301100;58;21140;-81
2022/08/25 01:47:14;;;;;;;11.12;4.87;;;;;;;;;;2300071;58;21058;-81
2022/08/25 01:49:41;;;;;;;5.30;4.03;;;;;;;;;;2300435;58;21664;-81
2022/08/25 01:52:11;;;;;;;6.90;4.25;;;;;;;;;;2300536;58;21058;-81
2022/08/25 01:54:38;;;;;;;6.97;4.20;;;;;;;;;;2300336;58;21133;-81
2022/08/25 01:57:06;;;;;;;6.05;4.28;;;;;;;;;;2299846;58;21066;-81
2022/08/25 01:59:33;;;;;;;4.80;3.97;;;;;;;;;;2300607;58;21637;-82
2022/08/25 02:02:00;;;;;;;7.78;4.72;;;;;;;;;;2301234;58;21137;-81
2022/08/25 02:04:30;;;;;;;5.97;3.95;;;;;;;;;;2300415;58;21061;-81
2022/08/25 02:06:58;;;;;;;10.27;4.90;;;;;;;;;;2300445;58;21070;-82
2022/08/25 02:09:25;;;;;;;5.40;3.90;;;;;;;;;;2300768;58;21070;-81
2022/08/25 02:11:52;;;;;;;7.53;4.87;;;;;;;;;;2300704;58;21122;-81
2022/08/25 02:14:19;;;;;;;6.05;4.28;;;;;;;;;;2300625;58;21074;-81
2022/08/25 02:16:47;;;;;;;8.13;4.60;;;;;;;;;;2300534;58;21079;-80
2022/08/25 02:19:16;;;;;;;6.65;4.28;;;;;;;;;;2301207;58;21672;-81
2022/08/25 02:21:43;;;;;;;6.07;4.25;;;;;;;;;;2299856;58;21071;-81
2022/08/25 02:24:10;;;;;;;5.35;3.90;;;;;;;;;;2300593;58;21145;-81
2022/08/25 02:26:38;;;;;;;5.45;3.90;;;;;;;;;;2299924;58;21063;-81
2022/08/25 02:29:06;;;;;;;7.70;3.92;;;;;;;;;;2300805;58;21078;-81
2022/08/25 02:31:33;;;;;;;5.25;3.75;;;;;;;;;;2300534;58;21050;-81
2022/08/25 02:34:01;;;;;;;6.90;4.47;;;;;;;;;;2300717;58;21089;-81
2022/08/25 02:36:28;;;;;;;7.28;4.65;;;;;;;;;;2299631;58;21080;-81
2022/08/25 02:38:55;;;;;;;6.68;4.00;;;;;;;;;;2300885;58;21066;-81
2022/08/25 02:41:23;;;;;;;6.18;4.57;;;;;;;;;;2301018;58;21062;-81
2022/08/25 02:43:50;;;;;;;5.55;4.50;;;;;;;;;;2300244;58;21549;-80
2022/08/25 02:46:19;;;;;;;5.37;4.18;;;;;;;;;;2299691;58;21608;-81
2022/08/25 02:48:47;;;;;;;8.77;4.37;;;;;;;;;;2299447;58;21654;-81
2022/08/25 02:51:14;;;;;;;7.10;4.32;;;;;;;;;;2299818;58;21062;-81
2022/08/25 02:53:44;;;;;;;4.93;4.00;;;;;;;;;;2299471;58;21785;-81
2022/08/25 02:56:12;;;;;;;8.70;4.55;;;;;;;;;;2299984;58;21126;-80
2022/08/25 02:58:40;;;;;;;6.28;3.78;;;;;;;;;;2537737;54;21695;-81
2022/08/25 03:01:10;;;;;;;6.00;4.43;;;;;;;;;;2300283;58;21129;-81
2022/08/25 03:03:39;;;;;;;6.15;4.70;;;;;;;;;;2300279;58;21058;-81
2022/08/25 03:06:06;;;;;;;8.27;4.40;;;;;;;;;;2299695;58;21086;-81
2022/08/25 03:08:34;;;;;;;5.93;4.28;;;;;;;;;;2300329;58;21070;-82
2022/08/25 03:11:01;;;;;;;7.45;4.82;;;;;;;;;;2300458;58;21066;-81
2022/08/25 03:13:28;;;;;;;6.95;3.92;;;;;;;;;;2300478;58;21062;-81
2022/08/25 03:15:55;;;;;;;6.35;4.10;;;;;;;;;;2300369;58;21438;-81
2022/08/25 03:18:22;;;;;;;7.82;4.32;;;;;;;;;;2300178;58;21137;-81
2022/08/25 03:20:49;;;;;;;5.72;4.82;;;;;;;;;;2300250;58;21057;-81
2022/08/25 03:23:16;;;;;;;6.22;4.82;;;;;;;;;;2299762;58;21193;-80
2022/08/25 03:28:31;;;;;;;6.62;4.53;;;;;;;;;;2300410;58;21010;-80
2022/08/25 03:30:59;;;;;;;4.95;3.90;;;;;;;;;;2299545;58;21089;-81
2022/08/25 03:33:26;;;;;;;4.60;4.05;;;;;;;;;;2300663;58;21639;-81
2022/08/25 03:35:54;;;;;;;7.72;4.85;;;;;;;;;;2300126;58;21077;-81
2022/08/25 03:38:22;;;;;;;6.55;4.30;;;;;;;;;;2299613;58;21062;-81
2022/08/25 03:40:49;;;;;;;5.95;4.45;;;;;;;;;;2301015;58;21050;-81
2022/08/25 03:43:17;;;;;;;7.18;4.93;;;;;;;;;;2299795;58;21160;-81
2022/08/25 03:45:45;;;;;;;6.40;4.53;;;;;;;;;;2300365;58;21046;-81
2022/08/25 03:48:13;;;;;;;5.85;4.40;;;;;;;;;;2301048;58;21070;-81
2022/08/25 03:50:44;;;;;;;7.12;4.40;;;;;;;;;;2300663;58;21069;-81
2022/08/25 03:53:11;;;;;;;5.20;3.90;;;;;;;;;;2537085;54;21078;-81
2022/08/25 03:55:38;;;;;;;6.05;4.95;;;;;;;;;;2299888;58;22431;-81
2022/08/25 03:58:05;;;;;;;4.93;4.43;;;;;;;;;;2299242;58;21070;-81
2022/08/25 04:00:32;;;;;;;5.70;4.22;;;;;;;;;;2299798;58;21077;-82
2022/08/25 04:03:00;;;;;;;6.18;4.55;;;;;;;;;;2300319;58;21201;-80
2022/08/25 04:05:27;;;;;;;5.95;4.75;;;;;;;;;;2299329;58;21085;-80
2022/08/25 04:07:54;;;;;;;9.18;4.93;;;;;;;;;;2300789;58;21639;-80
2022/08/25 04:10:22;;;;;;;5.15;4.07;;;;;;;;;;2299745;58;21089;-81
2022/08/25 04:12:49;;;;;;;8.30;5.32;;;;;;;;;;2297595;58;21157;-80
2022/08/25 04:15:16;;;;;;;5.97;4.60;;;;;;;;;;2299680;58;21141;-82
2022/08/25 04:17:43;;;;;;;8.35;4.97;;;;;;;;;;2299789;58;21321;-80
2022/08/25 04:20:11;;;;;;;5.40;4.55;;;;;;;;;;2299993;58;21094;-81
2022/08/25 04:22:38;;;;;;;7.00;5.12;;;;;;;;;;2300665;58;21706;-81
2022/08/25 04:25:07;;;;;;;8.35;5.72;;;;;;;;;;2299572;58;22050;-81
2022/08/25 04:27:34;;;;;;;9.90;6.57;;;;;;;;;;2299941;58;21042;-82
2022/08/25 04:30:01;;;;;;;10.27;7.07;;;;;;;;;;2299816;58;21066;-79
2022/08/25 04:32:30;;;;;;;10.88;7.10;;;;;;;;;;2299032;58;21070;-81
2022/08/25 04:34:57;;;;;;;12.85;8.50;;;;;;;;;;2300239;58;21077;-80
2022/08/25 04:37:24;;;;;;;9.65;7.82;;;;;;;;;;2299343;58;21054;-80
2022/08/25 04:39:51;;;;;;;10.30;7.50;;;;;;;;;;2537322;54;21196;-80
2022/08/25 04:42:18;;;;;;;10.00;7.47;;;;;;;;;;2300618;58;21122;-80
2022/08/25 04:44:45;;;;;;;13.25;8.60;;;;;;;;;;2301874;58;21122;-80
2022/08/25 04:47:12;;;;;;;10.73;7.40;;;;;;;;;;2300432;58;21078;-80
2022/08/25 04:49:39;;;;;;;12.70;8.68;;;;;;;;;;2300983;58;21125;-80
2022/08/25 04:52:06;;;;;;;12.60;8.98;;;;;;;;;;2301012;58;21125;-80
2022/08/25 04:54:34;;;;;;;11.95;7.93;;;;;;;;;;2539049;54;21074;-79
2022/08/25 04:57:01;;;;;;;12.55;8.32;;;;;;;;;;2301696;58;21058;-80
2022/08/25 04:59:28;;;;;;;11.77;8.80;;;;;;;;;;2540189;54;21655;-80
2022/08/25 05:01:56;;;;;;;12.70;9.15;;;;;;;;;;2301708;58;21117;-79
2022/08/25 05:04:23;;;;;;;12.50;9.07;;;;;;;;;;2538944;54;21682;-80
2022/08/25 05:06:50;;;;;;;11.07;9.07;;;;;;;;;;2301824;58;21626;-80
2022/08/25 05:09:17;;;;;;;13.00;9.23;;;;;;;;;;2301681;58;21611;-80
2022/08/25 05:11:44;;;;;;;11.90;8.85;;;;;;;;;;2539147;54;21050;-80
2022/08/25 05:14:14;;;;;;;11.00;8.77;;;;;;;;;;2302015;58;21066;-79
2022/08/25 05:16:41;;;;;;;12.45;9.57;;;;;;;;;;2300070;58;21073;-78
2022/08/25 05:19:08;;;;;;;11.50;9.05;;;;;;;;;;2300172;58;21038;-78
2022/08/25 05:21:36;;;;;;;11.35;9.13;;;;;;;;;;2300814;58;21750;-79
2022/08/25 05:24:04;;;;;;;12.68;9.30;;;;;;;;;;2300933;58;21043;-79
2022/08/25 05:26:32;;;;;;;9.35;8.32;;;;;;;;;;2301831;58;21057;-80
2022/08/25 05:28:59;;;;;;;10.20;8.85;;;;;;;;;;2301487;58;21134;-80
2022/08/25 05:31:28;;;;;;;9.65;8.05;;;;;;;;;;2301733;58;21620;-80
2022/08/25 05:33:55;;;;;;;11.57;8.90;;;;;;;;;;2302183;58;21545;-80
2022/08/25 05:36:22;;;;;;;10.77;9.23;;;;;;;;;;2301122;58;21101;-80
2022/08/25 05:38:49;;;;;;;11.25;9.50;;;;;;;;;;2302377;58;21120;-80
2022/08/25 05:41:18;;;;;;;13.43;10.63;;;;;;;;;;2301623;58;21066;-79
2022/08/25 05:43:47;;;;;;;11.68;9.25;;;;;;;;;;2302270;58;21038;-80
2022/08/25 05:46:15;;;;;;;12.30;9.80;;;;;;;;;;2301553;58;21777;-79
2022/08/25 05:48:42;;;;;;;12.35;9.80;;;;;;;;;;2302224;58;21150;-80
2022/08/25 05:51:10;;;;;;;11.60;9.40;;;;;;;;;;2301573;58;21086;-80
2022/08/25 05:53:38;;;;;;;15.82;10.35;;;;;;;;;;2301252;58;21153;-80
2022/08/25 05:56:05;;;;;;;12.73;10.30;;;;;;;;;;2301445;58;21117;-79
2022/08/25 05:58:33;;;;;;;14.45;10.70;;;;;;;;;;2302299;58;21161;-80
2022/08/25 06:02:39;;;;;;;11.27;9.50;;;;;;;;;;2302075;58;21182;-79
2022/08/25 06:05:07;;;;;;;13.80;10.48;;;;;;;;;;2302111;58;21149;-80
2022/08/25 06:07:35;;;;;;;10.93;9.75;;;;;;;;;;2300700;58;21074;-80
2022/08/25 06:10:02;;;;;;;12.00;9.30;;;;;;;;;;2302046;58;21042;-80
2022/08/25 06:12:31;;;;;;;10.60;9.20;;;;;;;;;;2302124;58;21141;-79
2022/08/25 06:14:58;;;;;;;11.60;9.27;;;;;;;;;;2302279;58;21360;-80
2022/08/25 06:17:25;;;;;;;14.13;10.23;;;;;;;;;;2302097;58;21363;-80
2022/08/25 06:19:53;;;;;;;12.80;10.57;;;;;;;;;;2302319;58;21109;-80
2022/08/25 06:22:20;;;;;;;11.73;10.10;;;;;;;;;;2301940;58;21133;-80
2022/08/25 06:24:47;;;;;;;13.75;9.75;;;;;;;;;;2302159;58;21062;-80
2022/08/25 06:27:14;;;;;;;14.40;11.45;;;;;;;;;;2299172;58;21996;-80
2022/08/25 06:29:42;;;;;;;14.75;11.70;;;;;;;;;;2301593;58;21212;-79
2022/08/25 06:32:09;;;;;;;13.88;10.35;;;;;;;;;;2302332;58;21216;-80
2022/08/25 06:34:36;;;;;;;14.10;11.10;;;;;;;;;;2302559;58;21077;-80
2022/08/25 06:37:03;;;;;;;14.20;10.27;;;;;;;;;;2301562;58;21054;-80
2022/08/25 06:39:30;;;;;;;13.40;10.27;;;;;;;;;;2301144;58;21082;-80
2022/08/25 06:41:57;;;;;;;14.93;9.98;;;;;;;;;;2302294;58;21066;-80
2022/08/25 06:44:26;;;;;;;13.32;10.77;;;;;;;;;;2301072;58;21102;-80
2022/08/25 06:46:53;;;;;;;16.27;11.18;;;;;;;;;;2539265;54;21141;-80
2022/08/25 06:49:20;;;;;;;14.35;11.68;;;;;;;;;;2539591;54;21055;-80
2022/08/25 06:51:48;;;;;;;11.95;10.57;;;;;;;;;;2301485;58;21146;-79
2022/08/25 06:54:34;;;;;;;13.77;10.15;;;;;;;;;;2301700;58;21209;-79
2022/08/25 06:57:02;;;;;;;20.02;10.68;;;;;;;;;;2200732;61;21091;-77
2022/08/25 06:59:29;;;;;;;13.00;10.65;;;;;;;;;;2201522;61;21063;-76
2022/08/25 07:01:56;;;;;;;12.20;10.80;;;;;;;;;;2203164;60;21605;-76
2022/08/25 07:04:23;;;;;;;13.05;10.57;;;;;;;;;;2225513;60;21117;-77
2022/08/25 07:06:50;;;;;;;15.88;11.85;;;;;;;;;;2224914;60;21129;-75
2022/08/25 07:09:17;;;;;;;14.87;11.07;;;;;;;;;;2225569;60;21226;-77
2022/08/25 07:11:44;;;;;;;13.88;11.12;;;;;;;;;;2312449;56;21058;-75
2022/08/25 07:14:12;;;;;;;13.48;11.35;;;;;;;;;;2447049;56;21161;-76
2022/08/25 07:16:40;;;;;;;14.98;9.90;;;;;;;;;;2224689;60;21579;-76
2022/08/25 07:19:07;;;;;;;13.55;10.93;;;;;;;;;;2225310;60;21073;-76
2022/08/25 07:21:35;;;;;;;12.68;10.35;;;;;;;;;;2246007;56;21070;-76
2022/08/25 07:24:04;;;;;;;12.27;10.48;;;;;;;;;;2389663;56;21071;-76
2022/08/25 07:26:34;;;;;;;13.82;11.02;;;;;;;;;;2267789;56;21746;-77
2022/08/25 07:29:01;;;;;;;12.98;10.68;;;;;;;;;;2225463;60;21148;-78
2022/08/25 07:31:29;;;;;;;14.87;10.73;;;;;;;;;;2226055;60;21069;-79
2022/08/25 07:36:41;;;;;;;15.45;10.45;;;;;;;;;;2243312;56;21017;-76
2022/08/25 07:39:09;;;;;;;17.42;10.63;;;;;;;;;;2225288;60;21082;-76
2022/08/25 07:41:38;;;;;;;13.60;10.88;;;;;;;;;;2228422;56;21137;-76
2022/08/25 07:44:05;;;;;;;17.40;9.70;;;;;;;;;;2234081;56;21667;-77
2022/08/25 07:46:32;;;;;;;13.75;11.40;;;;;;;;;;2225185;60;21643;-75
2022/08/25 07:49:00;;;;;;;11.93;9.65;;;;;;;;;;2225244;60;21078;-76
2022/08/25 07:51:28;;;;;;;14.48;9.65;;;;;;;;;;2225608;60;21154;-76
2022/08/25 07:53:55;;;;;;;12.63;10.13;;;;;;;;;;2224762;60;21604;-77
2022/08/25 07:56:22;;;;;;;15.90;10.57;;;;;;;;;;2225010;60;21081;-76
2022/08/25 07:58:49;;;;;;;13.73;9.77;;;;;;;;;;2223614;60;21097;-77
2022/08/25 08:01:17;;;;;;;26.40;14.43;;;;;;;;;;2224689;60;21157;-76
2022/08/25 08:03:45;;;;;;;19.17;12.07;;;;;;;;;;2225610;60;21563;-77
2022/08/25 08:06:13;;;;;;;14.90;11.95;;;;;;;;;;2320958;56;21077;-76
2022/08/25 08:08:44;;;;;;;16.55;11.80;;;;;;;;;;2224808;60;21082;-75
2022/08/25 08:11:15;;;;;;;15.85;11.38;;;;;;;;;;2224542;60;21147;-77
2022/08/25 08:13:42;;;;;;;17.12;11.73;;;;;;;;;;2229413;56;21082;-77
2022/08/25 08:16:10;;;;;;;20.15;11.88;;;;;;;;;;2235238;56;21639;-77
2022/08/25 08:18:38;;;;;;;13.93;10.40;;;;;;;;;;2222779;60;21585;-78
2022/08/25 08:21:11;;;;;;;13.05;10.20;;;;;;;;;;2226518;56;21158;-78
2022/08/25 08:23:38;;;;;;;13.10;9.48;;;;;;;;;;2225054;60;21069;-77
2022/08/25 08:26:05;;;;;;;9.57;8.57;;;;;;;;;;2224496;60;21085;-76
2022/08/25 08:28:32;;;;;;;13.45;9.95;;;;;;;;;;2224579;60;21137;-78
2022/08/25 08:30:59;;;;;;;13.90;11.23;;;;;;;;;;2319556;56;21580;-78
2022/08/25 08:33:27;;;;;;;13.27;11.23;;;;;;;;;;2246835;56;21579;-77
2022/08/25 08:35:58;;;;;;;13.68;9.60;;;;;;;;;;2239480;56;21161;-77
2022/08/25 08:38:25;;;;;;;13.73;9.43;;;;;;;;;;2224773;60;21082;-78
2022/08/25 08:43:47;;;;;;;11.48;8.25;;;;;;;;;;2225686;56;21030;-77
2022/08/25 08:46:14;;;;;;;8.15;6.43;;;;;;;;;;2224986;60;21160;-76
2022/08/25 08:48:44;;;;;;;8.10;5.87;;;;;;;;;;2224785;60;21154;-77
2022/08/25 08:51:18;;;;;;;7.87;5.93;;;;;;;;;;2224803;60;21081;-76
2022/08/25 08:53:49;;;;;;;12.90;5.97;;;;;;;;;;2224558;60;21086;-78
2022/08/25 08:56:18;;;;;;;10.65;5.65;;;;;;;;;;2223409;60;21173;-77
2022/08/25 08:58:47;;;;;;;8.30;5.32;;;;;;;;;;2239817;56;21089;-81
2022/08/25 09:01:17;;;;;;;8.10;5.47;;;;;;;;;;2225298;56;21078;-77
2022/08/25 09:03:47;;;;;;;9.13;4.97;;;;;;;;;;2224826;60;21085;-79
2022/08/25 09:06:17;;;;;;;8.65;5.15;;;;;;;;;;2279788;56;21655;-79
2022/08/25 09:08:45;;;;;;;9.85;4.82;;;;;;;;;;2223089;60;21153;-79
2022/08/25 09:11:15;;;;;;;6.68;4.45;;;;;;;;;;2222913;60;21081;-78
2022/08/25 09:13:49;;;;;;;7.43;4.22;;;;;;;;;;2224344;60;21786;-79
2022/08/25 09:19:11;;;;;;;7.70;4.75;;;;;;;;;;2224454;56;21615;-79
2022/08/25 09:21:42;;;;;;;5.55;4.12;;;;;;;;;;2225265;60;21061;-77
2022/08/25 09:24:15;;;;;;;5.22;4.22;;;;;;;;;;2223571;60;21873;-79
2022/08/25 09:26:45;;;;;;;7.47;4.65;;;;;;;;;;2224416;60;21126;-78
2022/08/25 09:29:14;;;;;;;10.18;4.80;;;;;;;;;;2225351;60;21517;-78
2022/08/25 09:31:42;;;;;;;7.18;4.70;;;;;;;;;;2224822;60;21096;-79
2022/08/25 09:34:11;;;;;;;10.73;5.10;;;;;;;;;;2224972;60;21753;-78
2022/08/25 09:36:39;;;;;;;6.72;4.35;;;;;;;;;;2224678;60;21168;-78
2022/08/25 09:39:07;;;;;;;6.15;4.10;;;;;;;;;;2224787;60;21643;-78
2022/08/25 09:41:45;;;;;;;8.93;4.55;;;;;;;;;;2224719;60;21097;-78
2022/08/25 09:44:18;;;;;;;6.85;4.32;;;;;;;;;;2258925;56;21152;-78
2022/08/25 09:46:55;;;;;;;6.95;5.12;;;;;;;;;;2224491;60;21125;-77
2022/08/25 09:49:30;;;;;;;7.50;4.80;;;;;;;;;;2225938;58;21153;-82
2022/08/25 09:52:16;;;;;;;10.38;4.45;;;;;;;;;;2228052;56;21074;-77
2022/08/25 09:54:43;;;;;;;9.68;4.57;;;;;;;;;;2224297;60;22154;-78
2022/08/25 09:57:27;;;;;;;8.07;3.87;;;;;;;;;;2224606;60;21154;-77
2022/08/25 09:59:54;;;;;;;8.38;4.97;;;;;;;;;;2301953;56;21070;-77
2022/08/25 10:02:24;;;;;;;8.50;4.37;;;;;;;;;;2225578;60;21161;-78
2022/08/25 10:04:51;;;;;;;6.15;4.62;;;;;;;;;;2291994;56;21564;-76
2022/08/25 10:07:24;;;;;;;7.20;4.35;;;;;;;;;;2243776;56;21077;-77
2022/08/25 10:09:53;;;;;;;9.38;4.32;;;;;;;;;;2225130;60;21154;-78
2022/08/25 10:12:23;;;;;;;9.27;4.15;;;;;;;;;;2225092;60;21149;-80
2022/08/25 10:14:50;;;;;;;6.20;4.32;;;;;;;;;;2225359;60;21161;-79
2022/08/25 10:17:23;;;;;;;6.30;3.60;;;;;;;;;;2224691;60;21579;-77
2022/08/25 10:19:51;;;;;;;6.82;3.58;;;;;;;;;;2226007;60;21086;-78
2022/08/25 10:22:23;;;;;;;10.05;3.78;;;;;;;;;;2225645;60;21057;-77
2022/08/25 10:24:50;;;;;;;5.65;3.72;;;;;;;;;;2225438;60;21568;-77
2022/08/25 10:27:20;;;;;;;4.50;3.42;;;;;;;;;;2224907;60;21150;-80
2022/08/25 10:30:04;;;;;;;6.03;3.55;;;;;;;;;;2225404;60;21563;-78
2022/08/25 10:32:30;;;;;;;;;;;;;;;;;;2228273;60;21081;-80
2022/08/25 10:34:58;;;;;;;7.72;3.65;;;;;;;;;;2225804;56;20147;-80
2022/08/25 10:37:31;;;;;;;5.82;4.00;;;;;;;;;;2225535;60;21070;-79
2022/08/25 10:40:07;;;;;;;7.87;3.53;;;;;;;;;;2226209;60;21603;-78
2022/08/25 10:42:39;;;;;;;7.80;3.20;;;;;;;;;;2225786;60;21085;-77
2022/08/25 10:48:31;;;;;;;5.60;3.75;;;;;;;;;;2224993;57;21591;-79
2022/08/25 10:51:02;;;;;;;7.80;3.78;;;;;;;;;;2225857;60;21077;-78
2022/08/25 10:53:34;;;;;;;6.03;3.15;;;;;;;;;;2274671;56;21145;-78
2022/08/25 10:56:07;;;;;;;10.80;3.58;;;;;;;;;;2225551;60;21068;-79
2022/08/25 10:58:46;;;;;;;6.15;3.65;;;;;;;;;;2353629;56;21141;-78
2022/08/25 11:03:52;;;;;;;7.25;3.78;;;;;;;;;;2392785;53;22155;-77
2022/08/25 11:06:21;;;;;;;7.70;3.30;;;;;;;;;;2345940;57;21049;-77
2022/08/25 11:08:51;;;;;;;6.87;3.60;;;;;;;;;;2346402;57;21160;-76
2022/08/25 11:11:23;;;;;;;4.80;3.08;;;;;;;;;;2378068;53;21129;-78
2022/08/25 11:13:53;;;;;;;5.12;3.60;;;;;;;;;;2352581;53;21109;-77
2022/08/25 11:16:21;;;;;;;3.62;2.65;;;;;;;;;;2346575;57;21154;-76
2022/08/25 11:18:53;;;;;;;5.72;3.20;;;;;;;;;;2357731;53;21538;-77
2022/08/25 11:21:23;;;;;;;4.93;2.92;;;;;;;;;;2353037;53;21105;-76
2022/08/25 11:23:54;;;;;;;3.97;2.75;;;;;;;;;;2514794;52;21497;-77
2022/08/25 11:26:28;;;;;;;5.25;3.00;;;;;;;;;;2347493;57;21109;-78
2022/08/25 11:28:59;;;;;;;5.60;3.00;;;;;;;;;;2347581;57;21117;-79
2022/08/25 11:31:26;;;;;;;8.25;3.37;;;;;;;;;;2347676;57;21037;-77
2022/08/25 11:33:54;;;;;;;4.28;2.78;;;;;;;;;;2347716;57;21084;-78
2022/08/25 11:36:25;;;;;;;5.10;3.37;;;;;;;;;;2346685;57;21694;-79
2022/08/25 11:38:56;;;;;;;6.15;3.15;;;;;;;;;;2347218;57;21053;-77
2022/08/25 11:41:27;;;;;;;7.10;2.70;;;;;;;;;;2447109;53;21053;-76
2022/08/25 11:44:01;;;;;;;3.72;2.80;;;;;;;;;;2347073;57;21046;-79
2022/08/25 11:46:38;;;;;;;3.30;2.50;;;;;;;;;;2346564;57;21176;-79
2022/08/25 11:49:15;;;;;;;3.90;2.70;;;;;;;;;;2347166;54;21144;-77
2022/08/25 11:51:43;;;;;;;6.70;3.12;;;;;;;;;;2447400;53;21061;-76
2022/08/25 11:54:19;;;;;;;4.62;2.80;;;;;;;;;;2344865;57;21368;-78
2022/08/25 11:56:52;;;;;;;3.67;2.45;;;;;;;;;;2369748;53;21097;-76
2022/08/25 11:59:39;;;;;;;4.97;2.53;;;;;;;;;;2346302;57;21114;-77
2022/08/25 12:02:06;;;;;;;3.20;2.53;;;;;;;;;;2344427;57;21120;-78
2022/08/25 12:04:39;;;;;;;4.60;2.47;;;;;;;;;;2342932;57;21540;-79
2022/08/25 12:07:26;;;;;;;4.10;2.53;;;;;;;;;;2344659;57;21061;-78
2022/08/25 12:10:13;;;;;;;3.78;2.40;;;;;;;;;;2346234;57;21034;-79
2022/08/25 12:12:56;;;;;;;3.55;2.40;;;;;;;;;;2346031;57;21050;-80
2022/08/25 12:15:25;;;;;;;5.10;2.42;;;;;;;;;;2344059;56;21125;-81
2022/08/25 12:18:09;;;;;;;6.25;2.53;;;;;;;;;;2345583;57;21113;-81
2022/08/25 12:20:54;;;;;;;5.72;2.60;;;;;;;;;;2345812;53;21345;-79
2022/08/25 12:23:28;;;;;;;4.35;2.80;;;;;;;;;;2344548;57;21548;-80
2022/08/25 12:25:55;;;;;;;5.32;2.50;;;;;;;;;;2345724;57;21065;-80
2022/08/25 12:28:41;;;;;;;3.30;2.67;;;;;;;;;;2346181;57;21053;-81
2022/08/25 12:31:15;;;;;;;4.62;2.37;;;;;;;;;;2346134;57;21049;-80
2022/08/25 12:33:48;;;;;;;3.70;2.50;;;;;;;;;;2347372;53;21034;-79
2022/08/25 12:36:26;;;;;;;4.97;2.25;;;;;;;;;;2345482;57;21120;-81
2022/08/25 12:38:53;;;;;;;3.45;2.20;;;;;;;;;;2346792;57;21046;-81
2022/08/25 12:44:15;;;;;;;3.60;2.58;;;;;;;;;;2394188;53;22650;-76
2022/08/25 12:46:44;;;;;;;3.40;2.22;;;;;;;;;;2353418;53;21548;-78
2022/08/25 12:49:28;;;;;;;5.28;2.50;;;;;;;;;;2347007;57;21046;-77
2022/08/25 12:51:58;;;;;;;4.15;2.78;;;;;;;;;;2352125;53;21125;-80
2022/08/25 12:54:31;;;;;;;5.78;2.65;;;;;;;;;;2350778;53;21564;-78
2022/08/25 12:57:01;;;;;;;8.35;2.60;;;;;;;;;;2576174;52;21060;-76
2022/08/25 12:59:35;;;;;;;3.30;2.22;;;;;;;;;;2609468;53;21104;-77
2022/08/25 13:02:01;;;;;;;;;;;;;;;;;;2364187;57;21038;-78
2022/08/25 13:05:00;;;;;;;3.85;2.40;;;;;;;;;;2613936;53;20098;-78
2022/08/25 13:07:35;;;;;;;5.15;2.60;;;;;;;;;;2613926;53;21105;-77
2022/08/25 13:10:12;;;;;;;8.93;2.30;;;;;;;;;;2362785;57;21595;-79
2022/08/25 13:12:44;;;;;;;5.87;2.70;;;;;;;;;;2615854;53;21149;-79
2022/08/25 13:15:13;;;;;;;4.93;2.30;;;;;;;;;;2364995;57;21303;-80
2022/08/25 13:17:40;;;;;;;3.83;2.20;;;;;;;;;;2363605;57;21607;-79
2022/08/25 13:20:15;;;;;;;3.42;2.25;;;;;;;;;;2364354;57;21116;-79
2022/08/25 13:22:44;;;;;;;3.03;2.45;;;;;;;;;;2615838;53;21669;-77
2022/08/25 13:25:15;;;;;;;4.28;2.62;;;;;;;;;;2614570;53;21622;-78
2022/08/25 13:27:42;;;;;;;6.25;2.28;;;;;;;;;;2361506;57;21152;-79
2022/08/25 13:30:19;;;;;;;3.90;2.45;;;;;;;;;;2364556;57;21030;-79
2022/08/25 13:32:46;;;;;;;4.03;2.78;;;;;;;;;;2365217;57;22581;-79
2022/08/25 13:35:15;;;;;;;4.90;2.95;;;;;;;;;;2614494;53;21049;-76
2022/08/25 13:37:43;;;;;;;6.00;2.33;;;;;;;;;;2364245;57;21085;-79
2022/08/25 13:40:11;;;;;;;3.15;2.30;;;;;;;;;;2363587;57;21553;-80
2022/08/25 13:42:39;;;;;;;4.12;2.47;;;;;;;;;;2364121;57;21034;-78
2022/08/25 13:45:08;;;;;;;4.37;2.70;;;;;;;;;;2363476;57;21556;-79
2022/08/25 13:47:37;;;;;;;4.03;2.28;;;;;;;;;;2364479;57;21128;-79
2022/08/25 13:50:19;;;;;;;3.80;2.87;;;;;;;;;;2615748;53;21025;-77
2022/08/25 13:52:48;;;;;;;4.35;2.75;;;;;;;;;;2364910;57;21089;-79
2022/08/25 13:55:20;;;;;;;3.17;2.58;;;;;;;;;;2364270;56;21093;-79
2022/08/25 13:57:47;;;;;;;6.80;3.40;;;;;;;;;;2656416;52;21029;-78
2022/08/25 14:00:25;;;;;;;3.47;2.50;;;;;;;;;;2396170;56;21232;-78
2022/08/25 14:02:53;;;;;;;5.47;2.92;;;;;;;;;;2655263;52;21106;-79
2022/08/25 14:05:32;;;;;;;4.03;2.53;;;;;;;;;;2395841;56;21038;-76
2022/08/25 14:07:59;;;;;;;6.90;2.53;;;;;;;;;;2655897;52;21137;-79
2022/08/25 14:10:34;;;;;;;3.62;2.87;;;;;;;;;;2397375;56;21086;-79
2022/08/25 14:13:08;;;;;;;14.18;3.15;;;;;;;;;;2397707;56;21117;-77
2022/08/25 14:15:37;;;;;;;6.70;2.35;;;;;;;;;;2396506;56;21054;-77
2022/08/25 14:18:07;;;;;;;3.30;2.60;;;;;;;;;;2653605;52;21030;-79
2022/08/25 14:20:36;;;;;;;3.20;2.60;;;;;;;;;;2396579;56;21097;-78
2022/08/25 14:23:04;;;;;;;5.30;2.78;;;;;;;;;;2655937;52;21039;-78
2022/08/25 14:25:33;;;;;;;4.95;2.70;;;;;;;;;;2653535;52;21328;-79
2022/08/25 14:28:02;;;;;;;3.85;2.55;;;;;;;;;;2396171;56;21074;-79
2022/08/25 14:30:30;;;;;;;5.25;2.62;;;;;;;;;;2397235;56;21038;-78
2022/08/25 14:32:57;;;;;;;4.60;2.90;;;;;;;;;;2655523;52;21209;-78
2022/08/25 14:35:24;;;;;;;8.75;2.53;;;;;;;;;;2655170;52;21081;-79
2022/08/25 14:37:52;;;;;;;6.15;2.42;;;;;;;;;;2655725;52;21109;-79
2022/08/25 14:40:19;;;;;;;7.15;3.12;;;;;;;;;;2655426;52;21061;-79
2022/08/25 14:42:46;;;;;;;6.43;3.03;;;;;;;;;;2396872;56;21715;-79
2022/08/25 14:45:13;;;;;;;5.18;2.87;;;;;;;;;;2654961;52;21026;-76
2022/08/25 14:47:41;;;;;;;5.22;2.80;;;;;;;;;;2396816;56;21045;-79
2022/08/25 14:50:09;;;;;;;4.45;2.72;;;;;;;;;;2397443;56;21047;-79
2022/08/25 14:52:36;;;;;;;3.30;2.53;;;;;;;;;;2397604;56;21038;-79
2022/08/25 14:55:04;;;;;;;4.65;2.95;;;;;;;;;;2396859;56;21105;-79
2022/08/25 14:57:32;;;;;;;7.47;2.67;;;;;;;;;;2397407;56;21047;-79
2022/08/25 14:59:59;;;;;;;6.75;2.90;;;;;;;;;;2655407;52;21097;-79
2022/08/25 15:02:26;;;;;;;2.70;2.30;;;;;;;;;;2396373;56;21339;-79
2022/08/25 15:04:55;;;;;;;3.08;2.70;;;;;;;;;;2395035;56;21038;-79
2022/08/25 15:10:09;;;;;;;3.50;2.33;;;;;;;;;;2394242;56;21480;-80
2022/08/25 15:12:36;;;;;;;2.83;2.47;;;;;;;;;;2395917;56;21074;-80
2022/08/25 15:15:04;;;;;;;3.05;2.45;;;;;;;;;;2396012;56;21106;-79